• Join FlightAware (Why Join?)
  • Login
  • US Flag 
02:44PM EDT


 

Airport Tracker/Info


-or-


 

Live Flight TrackerFlight Track Log ✈ TRS423 ✈ 13-May-2013 ✈ KMCO - KPHL

Flight Track Log - Related Links

Times and Time Zones

All times are in EDT time to prevent confusion due to time zone crossing. See the TRS423 flight status page for this flight to view local times or setup timezone preferences in your user account.

Time Position Orientation Groundspeed Altitude Reporting Facility
EDT Latitude Longitude Course Direction KTS MPH feet Rate Location/Type
02:45PM 28.4333 -81.3000 360° North 177 204 800  Level Orlando TRACON
02:47PM 28.5167 -81.3000 360° North 232 267 3,200 1,980 Climbing Orlando TRACON
02:48PM 28.5833 -81.3167 348° North 256 295 5,400 2,160 Climbing Orlando TRACON
02:49PM 28.6500 -81.3333 348° North 276 318 7,600 1,860 Climbing Orlando TRACON
02:51PM 28.8336 -81.3544 354° North 299 344 11,500 1,800 Climbing Jacksonville Center
02:52PM 28.9297 -81.3672 353° North 322 371 13,500 1,980 Climbing Jacksonville Center
02:53PM 29.0300 -81.3797 354° North 344 396 15,500 1,860 Climbing Jacksonville Center
02:54PM 29.1325 -81.3950 353° North 356 410 17,300 1,560 Climbing Jacksonville Center
02:55PM 29.2392 -81.4028 356° North 371 427 18,700 1,440 Climbing Jacksonville Center
02:56PM 29.3497 -81.4156 354° North 382 440 20,200 1,560 Climbing Jacksonville Center
02:57PM 29.4647 -81.4281 355° North 401 461 21,900 1,620 Climbing Jacksonville Center
02:58PM 29.5861 -81.4381 356° North 420 483 23,500 1,800 Climbing Jacksonville Center
02:59PM 29.7050 -81.4508 355° North 427 491 25,600 1,680 Climbing Jacksonville Center
03:00PM 29.8242 -81.4608 356° North 427 491 26,900 1,980 Climbing Jacksonville Center
03:01PM 29.9369 -81.4714 355° North 422 486 29,600 1,620 Climbing Jacksonville Center
03:02PM 30.0519 -81.4839 355° North 417 480 30,200 660 Climbing Jacksonville Center
03:03PM 30.1711 -81.4942 356° North 417 480 31,000 960 Climbing Jacksonville Center
03:04PM 30.2925 -81.5044 356° North 425 489 32,200 960 Climbing Jacksonville Center
03:05PM 30.4133 -81.5053 360° North 430 495 33,000 360 Climbing Jacksonville Center
03:06PM 30.5511 -81.4936 North 436 502 33,000  Level Jacksonville Center
03:07PM 30.6742 -81.4844 North 436 502 33,000  Level Jacksonville Center
03:08PM 30.8014 -81.4728 North 442 509 33,000  Level Jacksonville Center
03:09PM 30.9286 -81.4636 North 447 514 33,000  Level Jacksonville Center
03:10PM 31.0539 -81.4544 North 447 514 33,000  Level Jacksonville Center
03:11PM 31.1808 -81.4161 14° North 454 522 33,000  Level Jacksonville Center
03:12PM 31.2986 -81.3244 34° Northeast 481 554 33,000  Level Jacksonville Center
03:13PM 31.4019 -81.2375 36° Northeast 504 580 33,000  Level Jacksonville Center
03:14PM 31.5303 -81.1400 33° Northeast 504 580 33,000  Level Jacksonville Center
03:15PM 31.6458 -81.0475 34° Northeast 504 580 33,000  Level Jacksonville Center
03:16PM 31.7511 -80.9650 34° Northeast 499 574 33,000  Level Jacksonville Center
03:17PM 31.8789 -80.8644 34° Northeast 505 581 33,000  Level Jacksonville Center
03:18PM 31.9819 -80.7814 34° Northeast 505 581 33,000  Level Jacksonville Center
03:19PM 32.1097 -80.6778 34° Northeast 500 575 33,000 -60 Level Jacksonville Center
03:20PM 32.2144 -80.5917 35° Northeast 506 582 32,900  Descending Jacksonville Center
03:21PM 32.3297 -80.5003 34° Northeast 501 577 33,000  Climbing Jacksonville Center
03:22PM 32.4428 -80.4089 34° Northeast 501 577 33,000  Level Jacksonville Center
03:23PM 32.5558 -80.3144 35° Northeast 501 577 33,000 -60 Level Jacksonville Center
03:24PM 32.6706 -80.2200 35° Northeast 501 577 32,900  Descending Jacksonville Center
03:25PM 32.7978 -80.1147 35° Northeast 507 583 33,000  Climbing Jacksonville Center
03:26PM 32.9125 -80.0197 35° Northeast 507 583 33,000  Level Jacksonville Center
03:27PM 33.0250 -79.9122 39° Northeast 507 583 33,000 -60 Level Jacksonville Center
03:28PM 33.1350 -79.8042 39° Northeast 507 583 32,900  Descending Jacksonville Center
03:29PM 33.2450 -79.6986 39° Northeast 507 583 33,000  Climbing Jacksonville Center
03:30PM 33.3550 -79.5928 39° Northeast 507 583 33,000  Level Jacksonville Center
03:31PM 33.4628 -79.4842 40° Northeast 507 583 33,000 -60 Level Jacksonville Center
03:32PM 33.5706 -79.3803 39° Northeast 507 583 32,900  Descending Jacksonville Center
03:33PM 33.6800 -79.2711 40° Northeast 507 583 33,000  Climbing Jacksonville Center
03:35PM 33.8728 -79.0808 39° Northeast 509 586 32,900 -60 Descending Washington Center
03:36PM 33.9781 -78.9750 40° Northeast 504 580 32,900  Level Washington Center
03:37PM 34.0872 -78.8717 38° Northeast 497 572 33,000  Climbing Washington Center
03:38PM 34.1944 -78.7631 40° Northeast 497 572 32,900 -60 Descending Washington Center
03:39PM 34.3017 -78.6564 39° Northeast 497 572 32,900  Level Washington Center
03:40PM 34.4086 -78.5497 39° Northeast 497 572 33,000  Climbing Washington Center
03:41PM 34.5156 -78.4403 40° Northeast 497 572 33,000 -60 Level Washington Center
03:42PM 34.6244 -78.3331 39° Northeast 497 572 32,900  Descending Washington Center
03:43PM 34.7314 -78.2203 41° Northeast 497 572 33,000  Climbing Washington Center
03:44PM 34.8486 -78.0975 41° Northeast 497 572 33,000  Level Washington Center
03:45PM 34.9553 -77.9867 40° Northeast 497 572 33,000  Level Washington Center
03:46PM 35.0639 -77.8758 40° Northeast 497 572 33,000  Level Washington Center
03:47PM 35.1744 -77.7619 40° Northeast 504 580 33,000  Level Washington Center
03:48PM 35.2808 -77.6506 41° Northeast 504 580 33,000  Level Washington Center
03:49PM 35.3933 -77.5386 39° Northeast 509 586 33,000  Level Washington Center
03:50PM 35.4992 -77.4494 34° Northeast 509 586 33,000  Level Washington Center
03:51PM 35.6153 -77.3447 36° Northeast 509 586 33,000  Level Washington Center
03:52PM 35.7275 -77.2450 36° Northeast 509 586 33,000  Level Washington Center
03:53PM 35.8456 -77.1447 35° Northeast 509 586 33,000  Level Washington Center
03:54PM 35.9681 -77.0317 37° Northeast 504 580 33,000 -60 Level Washington Center
03:55PM 36.0839 -76.9311 35° Northeast 509 586 32,900 -540 Descending Washington Center
03:56PM 36.1978 -76.8275 36° Northeast 509 586 32,000 -900 Descending Washington Center
03:57PM 36.3133 -76.7261 35° Northeast 509 586 31,100 -960 Descending Washington Center
03:58PM 36.4292 -76.6219 36° Northeast 509 586 30,100 -1,080 Descending Washington Center
03:59PM 36.5489 -76.5125 36° Northeast 509 586 29,000 -600 Descending Washington Center
04:00PM 36.6664 -76.4050 36° Northeast 520 598 29,000  Level Washington Center
04:01PM 36.7819 -76.3000 36° Northeast 520 598 29,000  Level Washington Center
04:02PM 36.9036 -76.1919 35° Northeast 520 598 29,000  Level Washington Center
04:03PM 37.0247 -76.1331 21° North 528 608 29,000  Level Washington Center
04:04PM 37.1586 -76.0636 22° Northeast 523 602 29,000 -60 Level Washington Center
04:05PM 37.2964 -75.9914 23° Northeast 517 595 28,900 -60 Descending Washington Center
04:06PM 37.4322 -75.9161 24° Northeast 517 595 28,900  Level Washington Center
04:07PM 37.5661 -75.8408 24° Northeast 517 595 29,000 -240 Climbing Washington Center
04:08PM 37.6914 -75.7467 31° Northeast 517 595 28,500 -780 Descending Washington Center
04:09PM 37.8186 -75.6469 32° Northeast 522 601 27,500 -1,020 Descending Washington Center
04:10PM 37.9417 -75.5522 31° Northeast 527 606 26,500 -1,020 Descending Washington Center
04:11PM 38.0667 -75.4653 29° Northeast 516 594 25,500 -1,020 Descending Washington Center
04:12PM 38.1939 -75.3831 27° Northeast 503 579 24,500 -1,740 Descending Washington Center
04:13PM 38.3167 -75.3006 28° Northeast 493 567 22,100 -2,340 Descending Washington Center
04:14PM 38.4311 -75.2258 27° Northeast 476 548 19,900 -2,280 Descending Washington Center
04:15PM 38.5414 -75.1589 25° Northeast 455 524 17,500 -2,400 Descending Washington Center
04:16PM 38.6411 -75.0947 27° Northeast 425 489 15,100 -1,380 Descending Washington Center
04:17PM 38.7453 -75.0539 17° North 400 460 14,900 -120 Descending Washington Center
04:18PM 38.8514 -75.0344 North 379 436 14,900 -480 Level Washington Center
04:19PM 38.9578 -75.0044 12° North 379 436 14,000 -1,200 Descending Washington Center
04:20PM 39.0575 -74.9847 North 372 428 12,600 -1,380 Descending Washington Center
04:21PM 39.1556 -74.9600 11° North 367 422 11,200 -1,140 Descending Washington Center
04:23PM 39.3333 -74.9167 11° North 281 323 9,200 -780 Descending Philadelphia TRACON
04:24PM 39.4000 -74.9167 360° North 267 307 9,000 -540 Descending Philadelphia TRACON
04:25PM 39.4667 -74.9500 339° North 270 311 8,200 -960 Descending Philadelphia TRACON
04:26PM 39.5500 -74.9833 343° North 261 300 7,000 -720 Descending Philadelphia TRACON
04:27PM 39.6000 -75.0000 346° North 257 296 6,800 -540 Descending Philadelphia TRACON
04:28PM 39.6667 -74.9833 11° North 265 305 6,000 -420 Descending Philadelphia TRACON
04:29PM 39.7500 -74.9500 17° North 264 304 6,000 -180 Level Philadelphia TRACON
04:30PM 39.8167 -74.9333 11° North 197 227 5,700 -540 Descending Philadelphia TRACON
04:31PM 39.8500 -74.9000 38° Northeast 205 236 5,000 -720 Descending Philadelphia TRACON
04:32PM 39.9167 -74.8833 11° North 191 220 4,300 -480 Descending Philadelphia TRACON
04:33PM 39.9500 -74.9000 339° North 157 181 4,000 -180 Descending Philadelphia TRACON
04:34PM 39.9333 -74.9667 252° West 160 184 4,000 -360 Level Philadelphia TRACON
04:35PM 39.9167 -75.0167 247° West 164 189 3,400 -840 Descending Philadelphia TRACON
04:36PM 39.9000 -75.0833 252° West 168 193 2,400 -960 Descending Philadelphia TRACON
04:37PM 39.9000 -75.1333 270° West 137 158 1,400 -840 Descending Philadelphia TRACON
04:38PM 39.8833 -75.1833 247° West 126 145 800 -720 Descending Philadelphia TRACON
04:40PM 39.8667 -75.2333 253° West  Level FlightAware Approximate
04:47PM 39.8722 -75.2409 253° West  Level Estimated
04:48PM 39.8722 -75.2409 253° West  Level Estimated